Time;durP1;ratioP1;P1;durP2;ratioP2;P2;SDS_P1;SDS_P2;PMS_P1;PMS_P2;Temp;Humidity;BMP_temperature;BMP_pressure;BME280_temperature;BME280_humidity;BME280_pressure;Samples;Min_cycle;Max_cycle;Signal;HPM_P1;HPM_P2
2023/01/05 00:02:14;;;;;;;3.75;1.50;;;12.90;66.00;;;8.35;97.63;96417.69;4983749;28;20033;-58
2023/01/05 00:04:40;;;;;;;3.72;1.85;;;12.90;66.10;;;8.38;97.33;96403.19;4972821;28;20033;-58
2023/01/05 00:07:06;;;;;;;2.65;1.60;;;12.90;66.00;;;8.34;97.24;96391.41;4980618;28;20045;-57
2023/01/05 00:09:32;;;;;;;2.50;1.60;;;12.90;66.10;;;8.33;97.42;96390.56;4985628;28;20048;-55
2023/01/05 00:23:08;;;;;;;2.10;1.50;;;12.90;66.30;;;8.35;98.03;96385.03;5002929;28;20038;-52
2023/01/05 00:25:40;;;;;;;3.25;1.50;;;12.80;66.30;;;8.32;98.03;96388.16;4956120;28;20042;-52
2023/01/05 00:28:06;;;;;;;2.72;1.52;;;12.80;66.40;;;8.33;97.87;96387.13;4967554;28;20063;-52
2023/01/05 00:30:44;;;;;;;1.58;1.15;;;12.90;66.50;;;8.41;97.42;96391.31;4982483;28;20475;-52
2023/01/05 00:33:15;;;;;;;3.22;1.63;;;12.90;66.60;;;8.43;97.87;96378.59;4971901;28;20472;-56
2023/01/05 00:35:42;;;;;;;1.92;1.45;;;12.90;66.60;;;8.39;97.50;96386.22;4988177;28;20388;-56
2023/01/05 00:38:14;;;;;;;1.70;1.40;;;12.90;66.60;;;8.43;97.34;96381.25;4956300;28;20504;-54
2023/01/05 00:40:40;;;;;;;1.50;1.17;;;13.00;66.70;;;8.45;97.41;96373.88;4997053;28;20078;-52
2023/01/05 00:43:06;;;;;;;2.72;1.10;;;12.90;66.60;;;8.46;96.94;96362.19;4989128;28;20639;-52
2023/01/05 00:45:35;;;;;;;1.73;1.40;;;13.00;66.60;;;8.41;97.24;96354.94;4970719;28;20468;-56
2023/01/05 00:48:00;;;;;;;2.53;1.33;;;13.00;66.70;;;8.40;96.94;96356.00;4982662;28;20503;-53
2023/01/05 00:50:32;;;;;;;2.10;1.70;;;13.00;66.60;;;8.44;96.65;96359.00;4987896;28;20023;-56
2023/01/05 00:53:08;;;;;;;2.67;1.23;;;13.00;66.70;;;8.49;96.46;96357.25;4992766;28;20430;-51
2023/01/05 00:55:34;;;;;;;2.95;1.20;;;13.00;66.60;;;8.49;96.34;96354.63;5000702;28;20399;-52
2023/01/05 00:58:00;;;;;;;1.50;1.20;;;13.00;66.60;;;8.48;96.82;96347.66;5008945;28;20037;-54
2023/01/05 01:00:34;;;;;;;1.63;1.30;;;13.00;66.60;;;8.48;97.24;96341.56;4971979;28;20034;-50
2023/01/05 01:03:12;;;;;;;1.67;1.30;;;13.00;66.70;;;8.48;97.82;96344.22;4980973;28;20483;-53
2023/01/05 01:05:41;;;;;;;1.23;1.13;;;13.00;66.70;;;8.45;97.89;96331.41;4968397;28;20153;-51
2023/01/05 01:08:08;;;;;;;1.73;1.33;;;13.00;66.70;;;8.40;98.75;96328.63;4980100;28;20122;-54
2023/01/05 01:10:39;;;;;;;3.45;1.45;;;12.90;66.80;;;8.40;98.58;96332.09;4953075;28;20038;-51
2023/01/05 01:13:05;;;;;;;2.00;1.38;;;12.90;67.00;;;8.42;97.83;96326.53;4969680;28;20057;-50
2023/01/05 01:15:31;;;;;;;1.58;1.10;;;12.90;66.90;;;8.37;98.60;96337.00;4996201;28;20053;-50
2023/01/05 01:17:57;;;;;;;2.97;1.50;;;12.80;67.00;;;8.38;98.97;96334.19;4974602;28;20044;-54
2023/01/05 01:20:25;;;;;;;1.70;1.33;;;12.80;67.10;;;8.41;98.87;96335.56;4970763;28;20026;-54
2023/01/05 01:22:59;;;;;;;2.33;1.42;;;12.80;67.20;;;8.42;99.35;96323.91;4982683;28;20026;-55
2023/01/05 01:25:28;;;;;;;1.75;1.20;;;12.80;67.30;;;8.36;99.13;96317.63;4972862;28;20026;-51
2023/01/05 01:27:57;;;;;;;2.25;1.00;;;12.80;67.30;;;8.36;99.10;96320.28;5007267;28;20497;-49
2023/01/05 01:30:30;;;;;;;1.88;1.25;;;12.80;68.10;;;8.37;98.88;96327.22;4983072;28;20457;-49
2023/01/05 01:33:02;;;;;;;1.77;1.20;;;12.80;67.40;;;8.42;98.94;96321.25;4979425;28;20462;-50
2023/01/05 01:35:30;;;;;;;1.35;1.20;;;12.80;67.40;;;8.44;98.51;96343.06;4994670;28;20171;-50
2023/01/05 01:37:59;;;;;;;1.40;1.10;;;12.80;67.40;;;8.45;98.62;96344.66;4969241;28;20395;-50
2023/01/05 01:40:28;;;;;;;1.27;1.05;;;12.80;67.50;;;8.46;98.33;96333.00;4974072;28;20599;-55
2023/01/05 01:42:53;;;;;;;1.20;1.10;;;12.80;67.50;;;8.46;98.37;96341.81;4983876;28;20136;-53
2023/01/05 01:45:40;;;;;;;2.65;1.15;;;12.90;67.50;;;8.46;98.38;96340.97;4976562;28;20022;-52
2023/01/05 01:48:13;;;;;;;2.20;1.10;;;12.90;67.60;;;8.49;98.52;96333.38;4994279;28;20052;-57
2023/01/05 01:50:52;;;;;;;1.33;1.10;;;12.90;68.30;;;8.46;98.99;96335.66;5001248;28;20104;-50
2023/01/05 01:53:29;;;;;;;1.42;0.90;;;12.90;67.60;;;8.47;98.57;96342.59;4968400;28;20477;-53
2023/01/05 01:56:02;;;;;;;1.15;1.00;;;12.90;67.60;;;8.50;98.20;96347.44;4964828;28;20105;-51
2023/01/05 01:58:31;;;;;;;1.48;0.80;;;12.90;67.60;;;8.51;97.99;96347.19;4982076;28;20034;-50
2023/01/05 02:01:01;;;;;;;1.17;1.00;;;13.00;67.60;;;8.56;97.99;96335.91;4965540;28;20030;-52
2023/01/05 02:03:30;;;;;;;3.78;1.30;;;13.00;67.60;;;8.56;97.94;96336.69;4981528;28;20128;-56
2023/01/05 02:05:59;;;;;;;1.15;1.02;;;13.00;67.60;;;8.56;97.97;96323.41;5011164;28;20049;-53
2023/01/05 02:08:30;;;;;;;1.35;1.00;;;13.00;67.60;;;8.55;98.06;96332.44;4979029;28;20026;-53
2023/01/05 02:11:45;;;;;;;0.85;0.77;;;13.00;67.60;;;8.55;98.70;96313.03;4981010;28;20026;-56
2023/01/05 02:15:18;;;;;;;1.05;0.80;;;13.00;67.60;;;8.50;99.07;96313.72;4937160;28;20034;-50
2023/01/05 02:18:24;;;;;;;1.10;1.00;;;13.00;67.60;;;8.50;100.00;96311.06;4978075;28;20127;-54
2023/01/05 02:21:44;;;;;;;1.25;0.80;;;12.90;67.60;;;8.39;100.00;96317.19;4984738;28;20029;-50
2023/01/05 02:24:41;;;;;;;0.93;0.82;;;12.80;67.90;;;8.36;100.00;96314.97;4949315;28;20037;-51
2023/01/05 02:27:39;;;;;;;1.10;0.90;;;12.80;68.10;;;8.32;100.00;96313.84;4997234;28;20021;-50
2023/01/05 02:31:00;;;;;;;1.52;1.00;;;12.70;68.30;;;8.29;100.00;96320.41;4997013;28;20074;-53
2023/01/05 02:34:21;;;;;;;1.35;1.02;;;12.60;68.50;;;8.21;100.00;96317.28;5004725;28;20024;-56
2023/01/05 02:37:20;;;;;;;1.65;1.23;;;12.60;68.70;;;8.20;100.00;96310.38;5010470;28;20022;-56
2023/01/05 02:40:06;;;;;;;4.03;1.25;;;12.50;69.20;;;8.19;100.00;96308.78;4980324;28;20029;-50
2023/01/05 02:42:38;;;;;;;1.88;1.20;;;12.50;69.40;;;8.11;100.00;96299.28;4962890;28;20053;-50
2023/01/05 02:45:07;;;;;;;1.13;1.02;;;12.50;69.40;;;8.12;100.00;96303.59;4962898;28;20485;-52
2023/01/05 02:47:44;;;;;;;1.35;1.20;;;12.50;69.60;;;8.15;100.00;96302.28;4992889;28;20055;-50
2023/01/05 02:50:48;;;;;;;1.48;1.27;;;12.60;69.90;;;8.14;100.00;96293.53;4994599;28;20084;-55
2023/01/05 02:53:36;;;;;;;1.75;1.10;;;12.50;69.90;;;8.14;100.00;96304.13;5003055;28;20041;-54
2023/01/05 02:56:29;;;;;;;2.92;1.05;;;12.50;70.00;;;8.08;100.00;96302.41;4955141;28;20456;-55
2023/01/05 02:59:05;;;;;;;2.05;1.20;;;12.40;70.30;;;8.09;100.00;96293.44;4974569;28;20025;-51
2023/01/05 03:01:58;;;;;;;1.33;1.17;;;12.40;70.50;;;8.11;100.00;96293.97;5005975;28;20021;-54
2023/01/05 03:04:49;;;;;;;2.05;1.30;;;12.40;70.40;;;8.14;100.00;96300.69;4975869;28;20060;-50
2023/01/05 03:07:30;;;;;;;1.98;0.95;;;12.40;70.50;;;8.10;100.00;96298.50;4986688;28;20245;-54
2023/01/05 03:09:56;;;;;;;2.28;1.30;;;12.40;70.50;;;8.05;100.00;96292.25;4961668;28;20424;-58
2023/01/05 03:15:30;;;;;;;1.13;1.02;;;12.40;70.70;;;8.08;100.00;96297.94;4978150;28;20036;-54
2023/01/05 03:18:09;;;;;;;2.50;0.90;;;12.40;70.90;;;8.10;100.00;96298.50;4998283;28;20038;-55
2023/01/05 03:20:45;;;;;;;1.52;0.93;;;12.40;70.90;;;8.12;100.00;96290.31;4962710;28;20037;-54
2023/01/05 03:38:07;;;;;;;3.63;1.27;;;12.30;71.30;;;8.09;100.00;96290.78;4964314;28;20088;-52
2023/01/05 03:40:37;;;;;;;1.73;1.20;;;12.30;71.30;;;8.07;100.00;96298.94;4973659;28;20025;-55
2023/01/05 03:43:06;;;;;;;1.42;1.23;;;12.30;71.50;;;8.04;100.00;96293.31;4992407;28;20593;-54
2023/01/05 03:45:51;;;;;;;1.95;1.15;;;12.30;71.50;;;8.10;100.00;96290.53;4953492;28;20037;-50
2023/01/05 03:48:24;;;;;;;2.72;1.30;;;12.30;71.60;;;8.06;100.00;96286.72;4968752;28;20040;-53
2023/01/05 03:50:50;;;;;;;3.45;1.27;;;12.30;71.60;;;8.04;100.00;96290.66;4978104;28;20096;-54
2023/01/05 03:53:17;;;;;;;1.90;1.30;;;12.30;71.60;;;8.03;100.00;96283.72;4963658;28;20034;-55
2023/01/05 03:55:43;;;;;;;1.83;1.10;;;12.30;71.60;;;8.01;100.00;96281.31;4963558;28;20052;-56
2023/01/05 03:58:08;;;;;;;1.58;1.10;;;12.30;71.70;;;8.00;100.00;96269.09;5001961;28;20116;-50
2023/01/05 04:00:37;;;;;;;1.92;1.48;;;12.30;71.60;;;7.97;100.00;96274.84;4985955;28;20025;-55
2023/01/05 04:03:03;;;;;;;2.15;1.40;;;12.30;71.90;;;7.92;100.00;96276.56;4981549;28;20467;-51
2023/01/05 04:05:32;;;;;;;3.78;1.75;;;12.30;71.90;;;7.92;100.00;96274.72;4976006;28;20116;-56
2023/01/05 04:08:01;;;;;;;1.52;1.42;;;12.30;72.00;;;7.88;100.00;96278.88;4984603;28;20041;-54
2023/01/05 04:10:33;;;;;;;2.15;1.65;;;12.30;72.10;;;7.87;100.00;96280.72;4960515;28;20022;-51
2023/01/05 04:13:02;;;;;;;4.40;1.90;;;12.30;72.30;;;7.88;100.00;96273.56;4976965;28;20400;-51
2023/01/05 04:15:28;;;;;;;2.10;1.70;;;12.30;72.30;;;7.87;100.00;96286.03;4983863;28;20022;-50
2023/01/05 04:18:00;;;;;;;2.28;1.63;;;12.30;72.40;;;7.87;100.00;96277.28;4959811;28;20106;-53
2023/01/05 04:20:26;;;;;;;4.93;1.63;;;12.30;72.70;;;7.87;100.00;96269.31;4966341;28;20525;-50
2023/01/05 04:22:55;;;;;;;2.70;1.50;;;12.30;72.60;;;7.89;100.00;96283.13;4990855;28;20091;-52
2023/01/05 04:25:20;;;;;;;2.90;1.98;;;12.30;72.70;;;7.92;100.00;96280.03;4996162;28;20099;-51
2023/01/05 04:27:46;;;;;;;2.40;1.77;;;12.30;72.60;;;7.94;100.00;96282.47;4974967;28;20055;-52
2023/01/05 04:30:14;;;;;;;8.57;2.47;;;12.30;72.70;;;7.96;100.00;96283.84;4971832;28;20469;-55
2023/01/05 04:32:40;;;;;;;11.07;1.67;;;12.30;72.70;;;7.94;100.00;96283.28;4991396;28;20488;-51
2023/01/05 04:35:14;;;;;;;2.95;1.80;;;12.30;72.70;;;7.91;100.00;96280.28;4971752;28;20037;-54
2023/01/05 04:37:43;;;;;;;3.38;1.60;;;12.30;72.90;;;7.96;100.00;96273.25;4975642;28;20016;-56
2023/01/05 04:40:09;;;;;;;2.30;1.70;;;12.30;72.80;;;7.95;100.00;96281.41;4981808;28;20033;-52
2023/01/05 04:42:41;;;;;;;1.77;1.35;;;12.30;72.80;;;7.96;100.00;96278.56;4964113;28;20168;-57
2023/01/05 04:45:09;;;;;;;2.13;1.50;;;12.30;72.90;;;7.90;100.00;96274.16;4992459;28;20021;-51
2023/01/05 04:47:35;;;;;;;1.88;1.40;;;12.30;72.80;;;7.94;100.00;96274.50;4999584;28;20398;-55
2023/01/05 04:50:04;;;;;;;3.30;1.50;;;12.30;72.90;;;7.90;100.00;96274.16;4977947;28;20034;-56
2023/01/05 04:52:46;;;;;;;2.00;1.45;;;12.30;72.90;;;7.92;100.00;96266.75;5005194;28;20021;-54
2023/01/05 04:55:12;;;;;;;2.75;1.40;;;12.30;73.00;;;7.90;100.00;96260.91;4984607;28;20030;-57
2023/01/05 04:57:41;;;;;;;1.23;1.10;;;12.30;73.00;;;7.91;100.00;96265.16;4965766;28;20029;-56
2023/01/05 05:00:10;;;;;;;1.52;1.40;;;12.30;73.00;;;7.91;100.00;96269.66;4999942;28;20033;-51
2023/01/05 05:02:36;;;;;;;1.77;1.38;;;12.30;73.10;;;7.89;100.00;96267.22;4969165;28;20035;-58
2023/01/05 05:05:03;;;;;;;4.00;1.40;;;12.30;73.20;;;7.93;100.00;96264.91;4974130;28;20026;-50
2023/01/05 05:07:31;;;;;;;2.65;1.15;;;12.30;73.30;;;7.94;100.00;96263.91;4994658;28;20050;-55
2023/01/05 05:09:57;;;;;;;1.23;1.13;;;12.30;73.40;;;7.95;100.00;96262.84;4999047;28;20102;-57
2023/01/05 05:12:37;;;;;;;5.38;1.33;;;12.30;73.40;;;7.92;100.00;96268.63;4991411;28;20472;-51
2023/01/05 05:15:07;;;;;;;3.67;1.30;;;12.30;73.50;;;7.92;100.00;96268.63;4966080;28;20210;-54
2023/01/05 05:17:33;;;;;;;1.10;0.95;;;12.30;73.50;;;7.92;100.00;96279.22;4968826;28;20029;-50
2023/01/05 05:20:06;;;;;;;1.10;1.00;;;12.30;73.60;;;7.95;100.00;96281.41;4965945;28;20040;-53
2023/01/05 05:22:38;;;;;;;;;;;12.30;74.50;;;7.96;100.00;96275.06;4986277;28;20463;-51
2023/01/05 05:25:05;;;;;;;1.42;1.15;;;12.30;73.30;;;7.96;100.00;96277.72;4988743;28;19916;-50
2023/01/05 05:27:31;;;;;;;1.45;1.10;;;12.30;73.60;;;7.96;100.00;96280.38;4977099;28;20018;-50
2023/01/05 05:29:57;;;;;;;1.90;1.05;;;12.30;73.60;;;7.96;100.00;96280.38;5003819;28;20026;-51
2023/01/05 05:32:31;;;;;;;1.65;0.90;;;12.30;73.70;;;7.96;100.00;96283.84;4973463;28;20075;-55
2023/01/05 05:34:57;;;;;;;1.70;1.20;;;12.30;73.80;;;7.98;100.00;96281.75;4975851;28;20021;-50
2023/01/05 05:37:23;;;;;;;1.88;1.10;;;12.30;73.80;;;7.97;100.00;96285.47;4988643;28;20035;-54
2023/01/05 05:39:54;;;;;;;2.80;1.02;;;12.30;73.80;;;7.99;100.00;96279.91;4999402;28;20025;-52
2023/01/05 05:42:30;;;;;;;0.80;0.80;;;12.30;73.90;;;7.99;100.00;96291.34;4941042;28;20038;-50
2023/01/05 05:44:59;;;;;;;1.42;1.15;;;12.30;74.00;;;7.98;100.00;96300.34;4985661;28;20044;-51
2023/01/05 05:47:25;;;;;;;1.92;1.00;;;12.30;74.10;;;7.99;100.00;96306.44;4994068;28;20120;-54
2023/01/05 05:49:54;;;;;;;1.25;0.93;;;12.30;74.20;;;8.00;100.00;96303.56;4962358;28;20117;-53
2023/01/05 05:52:22;;;;;;;1.92;1.30;;;12.40;74.30;;;7.99;100.00;96290.53;4957721;28;20042;-53
2023/01/05 05:54:48;;;;;;;1.10;0.98;;;12.40;74.20;;;7.96;100.00;96294.47;4988240;28;20026;-54
2023/01/05 05:57:16;;;;;;;1.70;1.33;;;12.30;74.30;;;7.97;100.00;96297.91;4972659;28;20026;-56
2023/01/05 05:59:45;;;;;;;1.67;1.17;;;12.30;74.30;;;8.01;100.00;96302.53;4981694;28;20650;-51
2023/01/05 06:02:11;;;;;;;1.20;1.00;;;12.40;74.50;;;8.02;100.00;96296.19;4978696;28;20022;-50
2023/01/05 06:04:40;;;;;;;1.40;1.00;;;12.40;74.40;;;8.03;100.00;96307.63;4954303;28;20088;-54
2023/01/05 06:07:08;;;;;;;3.80;1.13;;;12.40;74.50;;;8.00;100.00;96311.53;4992670;28;20242;-50
2023/01/05 06:09:34;;;;;;;1.38;1.20;;;12.40;74.50;;;8.04;100.00;96311.88;4982007;28;20037;-52
2023/01/05 06:12:00;;;;;;;1.65;1.23;;;12.40;74.50;;;8.03;100.00;96315.56;4982294;28;20050;-50
2023/01/05 06:14:26;;;;;;;1.40;1.00;;;12.40;74.50;;;8.01;100.00;96317.63;4973081;28;20026;-55
2023/01/05 06:16:55;;;;;;;1.00;0.90;;;12.40;74.50;;;8.04;100.00;96315.34;5010184;28;20056;-55
2023/01/05 06:19:20;;;;;;;1.63;1.13;;;12.40;74.50;;;8.07;100.00;96330.00;4990517;28;20104;-50
2023/01/05 06:21:49;;;;;;;2.55;1.15;;;12.40;74.50;;;8.04;100.00;96317.97;4980385;28;20108;-50
2023/01/05 06:24:15;;;;;;;1.13;1.00;;;12.40;74.50;;;8.05;100.00;96318.78;4984725;28;20038;-50
2023/01/05 06:26:41;;;;;;;1.27;1.17;;;12.40;74.50;;;8.02;100.00;96317.44;4970394;28;20031;-53
2023/01/05 06:29:07;;;;;;;1.75;1.02;;;12.40;74.50;;;8.08;100.00;96321.81;4992913;28;20033;-50
2023/01/05 06:31:33;;;;;;;1.13;1.02;;;12.40;74.60;;;8.07;100.00;96312.22;5004905;28;20025;-53
2023/01/05 06:33:58;;;;;;;1.23;1.02;;;12.40;74.50;;;8.10;100.00;96325.03;4984390;28;20061;-54
2023/01/05 06:36:24;;;;;;;1.20;1.10;;;12.40;74.60;;;8.09;100.00;96325.28;4995789;28;20395;-51
2023/01/05 06:38:50;;;;;;;1.17;1.08;;;12.40;74.60;;;8.12;100.00;96322.16;4983625;28;20029;-51
2023/01/05 06:41:16;;;;;;;2.17;1.30;;;12.50;74.60;;;8.16;100.00;96315.34;4994836;28;20021;-55
2023/01/05 06:43:42;;;;;;;1.10;1.00;;;12.50;74.60;;;8.15;100.00;96311.09;4987724;28;20058;-53
2023/01/05 06:46:08;;;;;;;1.95;1.00;;;12.50;74.60;;;8.15;100.00;96316.38;4998567;28;20506;-55
2023/01/05 06:48:36;;;;;;;0.82;0.80;;;12.50;74.50;;;8.17;100.00;96324.91;5008837;28;20033;-55
2023/01/05 06:51:02;;;;;;;1.23;0.90;;;12.50;74.50;;;8.17;100.00;96322.25;4976520;28;20018;-51
2023/01/05 06:53:30;;;;;;;1.88;0.80;;;12.50;74.40;;;8.19;100.00;96327.34;4991197;28;20037;-52
2023/01/05 06:55:56;;;;;;;1.38;1.00;;;12.50;74.40;;;8.16;100.00;96330.47;4988489;28;20101;-50
2023/01/05 06:58:22;;;;;;;1.10;1.00;;;12.60;74.40;;;8.13;100.00;96322.97;4965866;28;20024;-53
2023/01/05 07:00:48;;;;;;;2.60;1.05;;;12.50;74.40;;;8.18;100.00;96341.63;4976309;28;20022;-52
2023/01/05 07:03:14;;;;;;;1.50;1.05;;;12.60;74.40;;;8.16;100.00;96341.88;4972505;28;20564;-55
2023/01/05 07:05:42;;;;;;;2.63;0.85;;;12.50;74.30;;;8.11;100.00;96342.56;4984770;28;20116;-50
2023/01/05 07:08:11;;;;;;;1.20;0.80;;;12.50;74.50;;;8.11;100.00;96344.41;4973428;28;20033;-50
2023/01/05 07:10:39;;;;;;;0.95;0.88;;;12.50;74.40;;;8.17;100.00;96353.28;4974334;28;20103;-51
2023/01/05 07:13:05;;;;;;;2.08;0.90;;;12.50;74.40;;;8.15;100.00;96352.72;4987295;28;20061;-52
2023/01/05 07:15:33;;;;;;;1.10;1.00;;;12.50;74.40;;;8.19;100.00;96348.56;4980785;28;20099;-50
2023/01/05 07:17:59;;;;;;;1.00;0.70;;;12.60;74.40;;;8.18;100.00;96350.44;4985281;28;20033;-53
2023/01/05 07:20:28;;;;;;;0.95;0.75;;;12.60;74.40;;;8.18;100.00;96361.03;4984727;28;20488;-50
2023/01/05 07:22:54;;;;;;;1.40;1.00;;;12.60;74.40;;;8.20;100.00;96358.16;4981515;28;20303;-52
2023/01/05 07:25:19;;;;;;;2.03;0.90;;;12.60;74.30;;;8.20;100.00;96355.50;4980055;28;20022;-55
2023/01/05 07:27:53;;;;;;;2.30;1.02;;;12.60;74.30;;;8.20;100.00;96352.84;4984048;28;20070;-54
2023/01/05 07:30:19;;;;;;;3.42;0.77;;;12.60;74.30;;;8.23;100.00;96357.69;4977383;28;20106;-51
2023/01/05 07:32:45;;;;;;;4.72;0.70;;;12.60;74.20;;;8.25;100.00;96359.06;4976796;28;20029;-55
2023/01/05 07:35:11;;;;;;;0.80;0.65;;;12.70;74.20;;;8.24;100.00;96353.97;4970587;28;20029;-51
2023/01/05 07:37:37;;;;;;;1.23;0.80;;;12.70;74.20;;;8.29;100.00;96356.75;4955067;28;20486;-51
2023/01/05 07:40:07;;;;;;;1.10;0.68;;;12.70;74.20;;;8.30;100.00;96355.72;4982600;28;20029;-53
2023/01/05 07:42:42;;;;;;;0.73;0.70;;;12.70;74.20;;;8.35;100.00;96358.50;4975210;28;20029;-51
2023/01/05 07:45:11;;;;;;;1.23;0.80;;;12.70;74.20;;;8.34;100.00;96354.25;4967028;28;20022;-52
2023/01/05 07:47:39;;;;;;;1.02;0.93;;;12.70;74.20;;;8.38;100.00;96352.75;4969507;28;20029;-50
2023/01/05 07:50:12;;;;;;;2.20;0.90;;;12.70;74.10;;;8.42;100.00;96353.91;4965489;28;20034;-51
2023/01/05 07:52:38;;;;;;;;;;;12.80;74.10;;;8.43;100.00;96352.88;4984772;28;20303;-57
2023/01/05 07:55:08;;;;;;;0.88;0.60;;;12.80;73.90;;;8.47;100.00;96347.91;4986626;28;20104;-50
2023/01/05 07:57:34;;;;;;;0.75;0.70;;;12.80;74.00;;;8.47;100.00;96355.88;4976150;28;20029;-53
2023/01/05 07:59:59;;;;;;;1.10;0.82;;;12.90;73.80;;;8.48;100.00;96358.28;5008674;28;20021;-52
2023/01/05 08:02:31;;;;;;;0.90;0.70;;;13.00;73.80;;;8.49;100.00;96365.22;5003623;28;20432;-50
2023/01/05 08:04:58;;;;;;;0.98;0.70;;;13.10;73.70;;;8.58;100.00;96370.97;4991025;28;21213;-50
2023/01/05 08:07:24;;;;;;;1.65;0.63;;;13.10;73.50;;;8.60;100.00;96378.72;4977682;28;20072;-54
2023/01/05 08:13:58;;;;;;;0.65;0.65;;;13.20;73.30;;;8.64;100.00;96388.63;4967317;28;20052;-50
2023/01/05 08:15:22;;;;;;;0.63;0.63;;;13.20;73.20;;;8.70;100.00;96381.59;4958888;28;20385;-55
2023/01/05 08:17:48;;;;;;;0.70;0.70;;;13.20;73.10;;;8.65;100.00;96381.47;4963065;28;20112;-51
2023/01/05 08:20:14;;;;;;;0.60;0.60;;;13.30;73.00;;;8.73;100.00;96397.88;4950332;28;20113;-52
2023/01/05 08:22:43;;;;;;;0.50;0.50;;;13.30;72.90;;;8.76;100.00;96392.09;4967321;28;20030;-52
2023/01/05 08:25:09;;;;;;;1.13;0.73;;;13.30;72.80;;;8.77;100.00;96399.03;4958555;28;20022;-50
2023/01/05 08:27:38;;;;;;;1.35;0.82;;;13.30;72.70;;;8.79;100.00;96396.13;4963544;28;20076;-50
2023/01/05 08:30:05;;;;;;;0.80;0.70;;;13.40;72.70;;;8.85;100.00;96400.53;4962691;28;20554;-53
2023/01/05 08:32:31;;;;;;;0.75;0.60;;;13.40;72.70;;;8.82;100.00;96405.50;4958505;28;20050;-55
2023/01/05 08:35:03;;;;;;;0.73;0.73;;;13.40;72.60;;;8.90;100.00;96403.28;4957080;28;20077;-50
2023/01/05 08:37:35;;;;;;;0.88;0.57;;;13.40;72.60;;;8.83;100.00;96397.28;4958023;28;20030;-51
2023/01/05 08:40:02;;;;;;;1.03;0.77;;;13.40;72.40;;;8.85;100.00;96407.69;4959497;28;20027;-54
2023/01/05 08:42:31;;;;;;;1.13;0.70;;;13.40;72.50;;;8.80;100.00;96406.50;4975591;28;20113;-55
2023/01/05 08:44:57;;;;;;;7.97;1.40;;;13.40;72.40;;;8.77;100.00;96399.03;4968176;28;20054;-54
2023/01/05 08:47:25;;;;;;;15.00;1.23;;;13.40;72.30;;;8.75;100.00;96405.63;4965391;28;20091;-50
2023/01/05 08:49:51;;;;;;;4.97;1.00;;;13.30;72.40;;;8.76;100.00;96401.91;4954246;28;20061;-55
2023/01/05 08:52:17;;;;;;;5.95;1.00;;;13.30;72.40;;;8.69;100.00;96393.28;4955163;28;20019;-52
2023/01/05 08:54:45;;;;;;;1.75;0.90;;;13.30;72.50;;;8.69;100.00;96390.63;4966903;28;20033;-51
2023/01/05 08:57:17;;;;;;;5.07;0.90;;;13.30;72.60;;;8.70;100.00;96397.53;4956949;28;20398;-56
2023/01/05 08:59:43;;;;;;;1.67;0.88;;;13.30;72.60;;;8.72;100.00;96398.13;4980704;28;20075;-54
2023/01/05 09:02:14;;;;;;;0.90;0.55;;;13.30;72.70;;;8.72;100.00;96396.25;4964424;28;20054;-52
2023/01/05 09:04:40;;;;;;;0.55;0.50;;;13.30;72.70;;;8.73;100.00;96408.50;4967129;28;20030;-51
2023/01/05 09:07:15;;;;;;;1.73;0.70;;;13.20;72.70;;;8.75;100.00;96405.63;4983455;28;20043;-50
2023/01/05 09:09:41;;;;;;;0.73;0.60;;;13.30;72.80;;;8.78;100.00;96410.47;4968487;28;20112;-50
2023/01/05 09:12:19;;;;;;;0.70;0.50;;;13.20;72.70;;;8.74;100.00;96411.94;4971600;28;20548;-50
2023/01/05 09:14:54;;;;;;;0.57;0.57;;;13.30;72.90;;;8.78;100.00;96419.25;4970524;28;20480;-52
2023/01/05 09:17:48;;;;;;;0.57;0.57;;;13.30;72.90;;;8.82;100.00;96418.78;4970793;28;20034;-52
2023/01/05 09:20:14;;;;;;;0.47;0.47;;;13.30;72.70;;;8.85;100.00;96426.28;4962373;28;20026;-51
2023/01/05 09:22:43;;;;;;;0.85;0.50;;;13.40;72.70;;;8.93;100.00;96425.91;4946347;28;20092;-55
2023/01/05 09:25:10;;;;;;;0.70;0.60;;;13.40;72.70;;;8.89;100.00;96427.44;4972785;28;20022;-51
2023/01/05 09:27:40;;;;;;;2.03;0.60;;;13.40;72.60;;;8.88;100.00;96442.56;4979035;28;20117;-54
2023/01/05 09:30:14;;;;;;;1.05;0.88;;;13.40;72.60;;;8.93;100.00;96437.38;4973061;28;20121;-50
2023/01/05 09:32:43;;;;;;;0.85;0.82;;;13.50;72.60;;;8.95;100.00;96437.94;4970708;28;20076;-51
2023/01/05 09:35:12;;;;;;;0.82;0.60;;;13.50;72.50;;;8.96;100.00;96438.72;4972681;28;20045;-50
2023/01/05 09:37:43;;;;;;;1.00;0.70;;;13.50;72.40;;;8.96;100.00;96433.41;4970338;28;20059;-53
2023/01/05 09:40:12;;;;;;;0.50;0.50;;;13.50;72.30;;;8.94;100.00;96438.97;4983998;28;20488;-52
2023/01/05 09:42:45;;;;;;;1.33;0.70;;;13.60;72.30;;;8.97;100.00;96443.81;4939361;28;20026;-53
2023/01/05 09:45:26;;;;;;;0.90;0.80;;;13.60;72.20;;;8.99;100.00;96444.41;4968707;28;20389;-50
2023/01/05 09:47:58;;;;;;;2.05;0.60;;;13.60;72.10;;;8.99;100.00;96435.59;4965000;28;20062;-50
2023/01/05 09:50:31;;;;;;;0.52;0.50;;;13.60;72.00;;;8.97;100.00;96446.47;4972669;28;20534;-53
2023/01/05 09:53:12;;;;;;;0.50;0.50;;;13.60;71.90;;;9.00;100.00;96446.03;4989983;28;20022;-51
2023/01/05 09:55:43;;;;;;;0.77;0.60;;;13.70;71.80;;;9.10;100.00;96449.94;4956184;28;20049;-53
2023/01/05 09:58:25;;;;;;;0.47;0.47;;;13.80;71.80;;;9.16;100.00;96443.69;4958327;28;20026;-50
2023/01/05 10:01:18;;;;;;;0.60;0.60;;;13.90;71.60;;;9.22;100.00;96438.25;4970725;28;20030;-55
2023/01/05 10:04:08;;;;;;;0.50;0.50;;;14.10;71.40;;;9.38;100.00;96435.88;4958563;28;20049;-51
2023/01/05 10:06:43;;;;;;;1.35;0.80;;;14.30;71.10;;;9.44;100.00;96438.41;4983268;28;20057;-51
2023/01/05 10:09:23;;;;;;;0.90;0.60;;;14.50;70.80;;;9.55;100.00;96435.94;4946577;28;20034;-52
2023/01/05 10:15:04;;;;;;;0.50;0.50;;;14.70;70.10;;;9.67;100.00;96432.19;4966241;28;20256;-51
2023/01/05 10:17:40;;;;;;;1.23;0.77;;;14.90;69.70;;;9.91;99.33;96424.13;4965325;28;20432;-50
2023/01/05 10:21:04;;;;;;;0.70;0.70;;;15.10;69.40;;;10.01;97.47;96428.81;4948490;28;20103;-50
2023/01/05 10:23:45;;;;;;;;;;;15.30;69.10;;;10.08;97.25;96430.25;4969952;28;20030;-50
2023/01/05 10:26:36;;;;;;;0.60;0.60;;;15.40;69.00;;;10.05;96.76;96433.38;4964117;28;20316;-53
2023/01/05 10:29:14;;;;;;;0.65;0.60;;;15.50;68.30;;;10.15;96.70;96422.09;4969138;28;20057;-50
2023/01/05 10:32:12;;;;;;;1.20;0.70;;;15.60;68.10;;;10.18;96.43;96426.94;4943491;28;20030;-51
2023/01/05 10:35:28;;;;;;;0.60;0.60;;;15.60;67.90;;;10.33;95.93;96423.78;4962879;28;20529;-53
2023/01/05 10:38:26;;;;;;;0.60;0.60;;;15.70;67.90;;;10.41;95.12;96415.38;4906756;29;20099;-54
2023/01/05 10:41:18;;;;;;;0.75;0.60;;;15.80;67.60;;;10.37;93.98;96412.41;4896793;29;20047;-51
2023/01/05 10:44:36;;;;;;;0.85;0.70;;;15.90;67.10;;;10.46;93.52;96417.31;4889165;29;20043;-53
2023/01/05 10:47:08;;;;;;;0.65;0.65;;;15.90;66.80;;;10.42;93.12;96420.44;4891852;29;20023;-50
2023/01/05 10:49:34;;;;;;;1.38;0.80;;;15.90;66.70;;;10.47;92.79;96413.63;4887761;29;20102;-51
2023/01/05 10:52:17;;;;;;;1.65;0.50;;;15.80;66.40;;;10.52;92.36;96416.34;4890237;29;20055;-50
2023/01/05 10:54:55;;;;;;;1.50;0.55;;;15.80;66.30;;;10.61;91.43;96426.34;4869783;29;20118;-54
2023/01/05 10:57:35;;;;;;;1.00;0.60;;;15.90;66.40;;;10.63;91.27;96437.56;4887814;29;20031;-50
2023/01/05 11:00:07;;;;;;;1.67;0.50;;;16.00;66.20;;;10.77;91.29;96439.88;4908677;29;20442;-53
2023/01/05 11:02:59;;;;;;;0.85;0.65;;;16.00;66.20;;;10.77;89.51;96438.03;4908170;29;20075;-51
2023/01/05 11:05:47;;;;;;;0.73;0.60;;;16.10;66.00;;;10.68;89.42;96444.81;4881225;29;20056;-51
2023/01/05 11:08:20;;;;;;;0.77;0.50;;;16.10;65.70;;;10.80;90.72;96444.72;4921966;28;20043;-50
2023/01/05 11:11:06;;;;;;;0.88;0.70;;;16.10;65.50;;;10.89;90.34;96446.72;4937730;28;20070;-54
2023/01/05 11:13:48;;;;;;;0.68;0.50;;;16.10;65.40;;;10.82;89.60;96439.97;4947311;28;20378;-55
2023/01/05 11:16:31;;;;;;;0.70;0.70;;;16.20;65.20;;;10.91;91.47;96440.38;4948710;28;20133;-54
2023/01/05 11:19:17;;;;;;;1.10;0.60;;;16.20;65.20;;;11.01;89.56;96432.50;4941175;28;20061;-51
2023/01/05 11:21:45;;;;;;;0.80;0.80;;;16.30;65.20;;;11.07;89.77;96423.50;4928761;28;20405;-53